Time;durP1;ratioP1;P1;durP2;ratioP2;P2;SDS_P1;SDS_P2;PMS_P1;PMS_P2;Temp;Humidity;BMP_temperature;BMP_pressure;BME280_temperature;BME280_humidity;BME280_pressure;Samples;Min_cycle;Max_cycle;Signal;HPM_P1;HPM_P2
2021/01/26 00:01:12;;;;;;;14.60;8.35;;;;;;;1.52;80.62;100783.53;4969900;28;20117;-50
2021/01/26 00:03:41;;;;;;;21.85;7.72;;;;;;;1.54;80.72;100784.03;4969569;28;20081;-49
2021/01/26 00:06:07;;;;;;;11.95;7.07;;;;;;;1.54;80.69;100789.50;4970922;28;20110;-49
2021/01/26 00:08:33;;;;;;;16.33;9.00;;;;;;;1.54;80.92;100786.78;4967619;28;20125;-48
2021/01/26 00:11:01;;;;;;;22.38;8.85;;;;;;;1.56;80.74;100792.75;4966779;28;20097;-48
2021/01/26 00:13:27;;;;;;;14.43;7.93;;;;;;;1.58;80.88;100793.31;4950702;28;20129;-47
2021/01/26 00:15:53;;;;;;;14.82;6.85;;;;;;;1.61;80.65;100800.94;4969270;28;20097;-49
2021/01/26 00:18:20;;;;;;;13.88;7.72;;;;;;;1.64;80.92;100792.16;4969985;28;20074;-48
2021/01/26 00:20:48;;;;;;;13.05;7.07;;;;;;;1.67;81.11;100783.38;4970187;28;20046;-47
2021/01/26 00:23:15;;;;;;;14.70;7.88;;;;;;;1.71;80.84;100787.19;4966260;28;20071;-48
2021/01/26 00:25:42;;;;;;;12.95;6.50;;;;;;;1.73;80.97;100782.25;4950784;29;20047;-48
2021/01/26 00:28:10;;;;;;;11.65;7.00;;;;;;;1.77;81.27;100777.06;4964557;28;20141;-47
2021/01/26 00:30:38;;;;;;;11.18;6.22;;;;;;;1.79;81.31;100786.59;4970324;28;20055;-48
2021/01/26 00:33:16;;;;;;;11.80;6.60;;;;;;;1.82;81.34;100768.81;4965028;28;20442;-49
2021/01/26 00:35:43;;;;;;;10.38;5.43;;;;;;;1.84;81.50;100761.16;4948554;28;20044;-49
2021/01/26 00:38:10;;;;;;;11.65;4.32;;;;;;;1.86;81.21;100767.13;4950899;29;20043;-51
2021/01/26 00:40:38;;;;;;;4.63;2.88;;;;;;;1.91;81.75;100766.28;4962294;28;20197;-48
2021/01/26 00:43:06;;;;;;;7.70;3.20;;;;;;;1.96;81.87;100777.16;4968946;28;20070;-47
2021/01/26 00:45:33;;;;;;;6.05;3.17;;;;;;;2.01;81.79;100785.31;4972996;28;20078;-47
2021/01/26 00:48:00;;;;;;;4.63;3.05;;;;;;;2.05;81.93;100783.59;4973264;28;20051;-50
2021/01/26 00:50:27;;;;;;;4.82;2.92;;;;;;;2.07;81.86;100784.13;4972172;28;20560;-50
2021/01/26 00:52:55;;;;;;;6.15;2.78;;;;;;;2.09;82.24;100790.94;4974851;28;20059;-47
2021/01/26 00:55:24;;;;;;;6.47;3.28;;;;;;;2.10;82.35;100786.28;4955540;28;21102;-49
2021/01/26 00:57:51;;;;;;;4.72;2.70;;;;;;;2.12;82.37;100786.84;4972696;28;20465;-49
2021/01/26 01:00:27;;;;;;;7.15;3.00;;;;;;;2.11;82.42;100786.00;4972848;28;20581;-50
2021/01/26 01:02:53;;;;;;;8.98;3.47;;;;;;;2.12;82.50;100789.56;4972887;28;20125;-48
2021/01/26 01:05:20;;;;;;;4.93;3.30;;;;;;;2.13;82.34;100789.25;4954597;28;20441;-46
2021/01/26 01:07:47;;;;;;;6.05;3.10;;;;;;;2.14;82.46;100774.53;4973043;28;20054;-49
2021/01/26 01:10:19;;;;;;;4.60;2.53;;;;;;;2.16;82.84;100782.41;4972594;28;20093;-47
2021/01/26 01:12:45;;;;;;;;;;;;;;;2.19;83.10;100785.38;4973120;28;20077;-49
2021/01/26 01:15:13;;;;;;;3.53;1.15;;;;;;;2.23;83.02;100789.16;4971935;28;20406;-48
2021/01/26 01:17:40;;;;;;;2.78;2.28;;;;;;;2.28;82.89;100783.63;4972128;28;20074;-49
2021/01/26 01:20:08;;;;;;;6.75;1.50;;;;;;;2.34;82.79;100793.41;4973191;28;20047;-49
2021/01/26 01:22:35;;;;;;;2.42;1.00;;;;;;;2.41;83.17;100787.59;4969117;28;20138;-49
2021/01/26 01:25:05;;;;;;;4.05;1.10;;;;;;;2.46;83.49;100782.09;4964591;28;20379;-47
2021/01/26 01:27:33;;;;;;;3.95;1.30;;;;;;;2.56;83.49;100786.63;4973249;28;20062;-45
2021/01/26 01:29:59;;;;;;;1.88;1.10;;;;;;;2.64;83.43;100789.53;4973737;28;20098;-49
2021/01/26 01:32:25;;;;;;;1.23;0.77;;;;;;;2.70;83.25;100796.53;4974418;28;20483;-50
2021/01/26 01:34:55;;;;;;;3.38;0.93;;;;;;;2.73;83.44;100801.44;4974359;28;20449;-48
2021/01/26 01:37:21;;;;;;;2.20;0.90;;;;;;;2.74;83.09;100797.59;4974595;28;20130;-47
2021/01/26 01:39:47;;;;;;;2.38;0.80;;;;;;;2.78;83.22;100797.84;4973518;28;20055;-46
2021/01/26 01:42:14;;;;;;;2.40;0.80;;;;;;;2.79;83.05;100794.81;4973990;28;20043;-49
2021/01/26 01:44:41;;;;;;;1.17;0.40;;;;;;;2.80;83.43;100784.69;4973344;28;20046;-50
2021/01/26 01:47:15;;;;;;;1.02;0.70;;;;;;;2.80;83.51;100792.91;4973903;28;20142;-47
2021/01/26 01:49:44;;;;;;;3.28;0.40;;;;;;;2.80;83.65;100790.16;4973989;28;20058;-50
2021/01/26 01:52:19;;;;;;;0.30;0.30;;;;;;;2.81;83.19;100792.59;4973992;28;20842;-51
2021/01/26 01:54:52;;;;;;;0.38;0.30;;;;;;;2.82;83.20;100777.81;4973673;28;20094;-49
2021/01/26 01:57:29;;;;;;;2.60;0.50;;;;;;;2.82;83.13;100769.63;4972839;28;20077;-48
2021/01/26 02:00:00;;;;;;;3.22;0.90;;;;;;;2.82;83.73;100766.06;4974057;28;20551;-48
2021/01/26 02:02:28;;;;;;;2.35;0.80;;;;;;;2.80;83.57;100762.81;4974030;28;20081;-49
2021/01/26 02:04:58;;;;;;;2.47;0.65;;;;;;;2.79;83.17;100755.72;4974258;28;20053;-48
2021/01/26 02:07:24;;;;;;;1.20;0.40;;;;;;;2.78;83.41;100763.09;4973509;28;20050;-48
2021/01/26 02:09:50;;;;;;;1.08;0.45;;;;;;;2.76;83.41;100743.44;4973470;28;20070;-52
2021/01/26 02:12:17;;;;;;;1.77;0.40;;;;;;;2.74;83.74;100756.59;4973197;28;20070;-48
2021/01/26 02:14:50;;;;;;;5.93;1.92;;;;;;;2.71;83.87;100754.44;4972332;28;20589;-46
2021/01/26 02:17:24;;;;;;;23.85;8.77;;;;;;;2.68;84.02;100752.31;4973726;28;20070;-49
2021/01/26 02:20:28;;;;;;;36.03;14.10;;;;;;;2.67;84.08;100749.88;4974041;28;20051;-51
2021/01/26 02:23:15;;;;;;;40.65;14.00;;;;;;;2.68;83.92;100743.28;4973113;28;20046;-47
2021/01/26 02:25:53;;;;;;;25.48;10.70;;;;;;;2.67;83.94;100756.16;4952901;28;20097;-48
2021/01/26 02:28:44;;;;;;;15.20;6.03;;;;;;;2.64;83.91;100751.28;4959605;28;20130;-50
2021/01/26 02:31:28;;;;;;;4.15;1.27;;;;;;;2.62;83.74;100750.72;4961196;28;20508;-48
2021/01/26 02:34:13;;;;;;;3.60;1.10;;;;;;;2.60;84.08;100742.00;4956213;28;20050;-47
2021/01/26 02:36:52;;;;;;;7.60;1.45;;;;;;;2.60;84.17;100742.00;4955879;28;20134;-46
2021/01/26 02:39:39;;;;;;;2.35;1.63;;;;;;;2.60;83.93;100742.00;4973066;28;20552;-50
2021/01/26 02:42:29;;;;;;;4.65;2.17;;;;;;;2.59;84.27;100743.13;4972842;28;20078;-48
2021/01/26 02:45:29;;;;;;;6.43;2.75;;;;;;;2.60;83.91;100741.19;4973224;28;20125;-46
2021/01/26 02:48:16;;;;;;;7.20;2.63;;;;;;;2.59;84.34;100743.13;4972732;28;20101;-47
2021/01/26 02:50:52;;;;;;;6.45;2.00;;;;;;;2.60;83.93;100742.00;4973182;28;20155;-46
2021/01/26 02:53:46;;;;;;;7.70;2.00;;;;;;;2.61;84.43;100724.53;4972922;28;20078;-48
2021/01/26 02:56:29;;;;;;;3.95;1.52;;;;;;;2.61;84.44;100726.44;4972722;28;20113;-47
2021/01/26 02:59:01;;;;;;;2.15;1.02;;;;;;;2.62;84.34;100720.66;4953674;29;20146;-47
2021/01/26 03:01:35;;;;;;;1.23;1.02;;;;;;;2.63;84.50;100714.09;4954017;29;20051;-49
2021/01/26 03:04:07;;;;;;;1.95;0.90;;;;;;;2.66;84.28;100709.97;4953628;29;20051;-49
2021/01/26 03:06:35;;;;;;;3.08;0.80;;;;;;;2.67;84.51;100712.44;4971332;28;20192;-51
2021/01/26 03:09:27;;;;;;;1.13;0.82;;;;;;;2.69;84.49;100710.19;4978485;28;20497;-51
2021/01/26 03:11:57;;;;;;;1.25;0.60;;;;;;;2.70;84.14;100714.53;4971486;28;20086;-51
2021/01/26 03:14:42;;;;;;;1.85;0.40;;;;;;;2.71;84.42;100710.72;4972480;28;20118;-47
2021/01/26 03:17:18;;;;;;;1.15;0.55;;;;;;;2.72;84.20;100701.41;4972481;28;20093;-50
2021/01/26 03:19:49;;;;;;;0.80;0.65;;;;;;;2.73;84.51;100713.16;4972919;28;20063;-50
2021/01/26 03:22:22;;;;;;;1.35;0.60;;;;;;;2.75;84.18;100700.84;4972054;28;20071;-50
2021/01/26 03:24:52;;;;;;;1.35;0.45;;;;;;;2.75;84.22;100709.03;4972749;28;20062;-46
2021/01/26 03:27:25;;;;;;;2.40;0.57;;;;;;;2.76;84.48;100707.91;4972159;28;20045;-49
2021/01/26 03:29:55;;;;;;;2.83;0.60;;;;;;;2.77;84.35;100703.25;4972867;28;20735;-48
2021/01/26 03:32:29;;;;;;;2.88;1.00;;;;;;;2.78;84.60;100704.91;4972818;28;20039;-49
2021/01/26 03:34:56;;;;;;;1.50;0.60;;;;;;;2.79;85.14;100698.31;4972597;28;20500;-48
2021/01/26 03:37:23;;;;;;;1.55;0.70;;;;;;;2.81;84.92;100694.16;4972374;28;20133;-50
2021/01/26 03:39:51;;;;;;;1.98;0.52;;;;;;;2.81;85.12;100688.69;4953899;28;20568;-49
2021/01/26 03:42:17;;;;;;;0.70;0.70;;;;;;;2.82;85.12;100682.13;4966190;28;20058;-48
2021/01/26 03:44:47;;;;;;;5.90;0.85;;;;;;;2.83;85.18;100681.00;4952944;29;20588;-52
2021/01/26 03:47:27;;;;;;;1.85;1.10;;;;;;;2.84;85.24;100681.81;4953396;29;20086;-49
2021/01/26 03:50:05;;;;;;;2.75;0.80;;;;;;;2.83;85.25;100675.53;4964002;28;20058;-49
2021/01/26 03:52:38;;;;;;;2.03;0.70;;;;;;;2.84;85.14;100677.19;4952990;28;20059;-48
2021/01/26 03:55:23;;;;;;;3.17;0.63;;;;;;;2.85;85.38;100673.34;4952628;29;20099;-50
2021/01/26 03:58:06;;;;;;;3.17;0.95;;;;;;;2.86;85.78;100671.44;4953287;28;20565;-46
2021/01/26 04:00:47;;;;;;;5.05;1.95;;;;;;;2.85;85.71;100669.78;4952437;29;20043;-47
2021/01/26 04:03:28;;;;;;;0.95;0.82;;;;;;;2.84;85.63;100668.16;4953338;29;20050;-47
2021/01/26 04:06:10;;;;;;;5.10;1.47;;;;;;;2.85;85.95;100665.16;4953264;29;20073;-47
2021/01/26 04:08:46;;;;;;;1.80;1.10;;;;;;;2.86;86.17;100663.22;4970758;28;20300;-53
2021/01/26 04:11:19;;;;;;;1.23;0.75;;;;;;;2.86;85.89;100649.56;4972221;28;20039;-48
2021/01/26 04:14:23;;;;;;;3.03;1.20;;;;;;;2.86;85.69;100653.09;4962026;28;20042;-49
2021/01/26 04:16:59;;;;;;;2.80;1.10;;;;;;;2.85;85.90;100648.75;4972420;28;20052;-50
2021/01/26 04:19:32;;;;;;;3.25;1.08;;;;;;;2.86;86.13;100646.81;4974132;28;20485;-46
2021/01/26 04:22:00;;;;;;;1.67;0.80;;;;;;;2.86;86.18;100652.28;4975885;28;20489;-52
2021/01/26 04:24:32;;;;;;;3.88;0.93;;;;;;;2.87;86.26;100640.22;4975920;28;20055;-50
2021/01/26 04:27:00;;;;;;;3.08;0.80;;;;;;;2.88;86.21;100634.47;4975541;28;20047;-50
2021/01/26 04:29:27;;;;;;;6.95;1.08;;;;;;;2.89;86.49;100619.69;4974705;28;20096;-51
2021/01/26 04:31:55;;;;;;;0.80;0.70;;;;;;;2.90;86.46;100624.06;4975247;28;20141;-52
2021/01/26 04:34:23;;;;;;;3.33;0.98;;;;;;;2.91;86.51;100612.00;4975637;28;20416;-48
2021/01/26 04:36:49;;;;;;;2.28;0.70;;;;;;;2.93;86.66;100607.06;4975487;28;20124;-49
2021/01/26 04:39:15;;;;;;;6.35;3.13;;;;;;;2.94;86.43;100605.13;4975632;28;20051;-50
2021/01/26 04:41:50;;;;;;;2.78;1.00;;;;;;;2.95;86.57;100599.38;4975141;28;20089;-48
2021/01/26 04:44:26;;;;;;;3.75;1.05;;;;;;;2.96;86.60;100603.72;4974868;28;20051;-49
2021/01/26 04:47:07;;;;;;;2.97;1.17;;;;;;;2.98;86.46;100600.69;4974924;28;20119;-50
2021/01/26 04:50:00;;;;;;;3.67;0.88;;;;;;;2.99;86.71;100597.66;4975637;28;20050;-49
2021/01/26 04:52:48;;;;;;;3.05;1.42;;;;;;;2.99;87.24;100585.91;4955594;28;20055;-51
2021/01/26 04:55:17;;;;;;;2.35;1.25;;;;;;;2.99;86.92;100583.97;4955769;29;20054;-51
2021/01/26 04:57:55;;;;;;;3.17;1.00;;;;;;;2.99;87.09;100573.03;4966795;28;20058;-46
2021/01/26 05:00:25;;;;;;;7.65;1.52;;;;;;;3.00;86.88;100574.66;4974862;28;20082;-52
2021/01/26 05:03:23;;;;;;;3.97;0.70;;;;;;;3.00;87.30;100574.66;4956143;28;20203;-49
2021/01/26 05:05:56;;;;;;;1.95;1.02;;;;;;;3.00;86.79;100574.66;4955912;29;20051;-51
2021/01/26 05:08:29;;;;;;;1.17;0.60;;;;;;;3.01;87.05;100567.28;4955372;29;20047;-52
2021/01/26 05:11:11;;;;;;;3.22;1.00;;;;;;;3.02;87.48;100574.34;4969289;28;20528;-47
2021/01/26 05:13:41;;;;;;;0.98;0.35;;;;;;;3.02;87.25;100575.16;4966924;28;20413;-48
2021/01/26 05:16:15;;;;;;;3.70;1.08;;;;;;;3.04;87.54;100567.47;4953284;28;20086;-49
2021/01/26 05:18:50;;;;;;;1.52;0.88;;;;;;;3.06;87.41;100556.25;4965390;28;20130;-48
2021/01/26 05:21:45;;;;;;;2.88;1.52;;;;;;;3.07;87.29;100555.94;4963973;28;20057;-46
2021/01/26 05:24:26;;;;;;;4.38;1.42;;;;;;;3.08;87.15;100549.38;4953896;29;20087;-51
2021/01/26 05:26:53;;;;;;;2.40;1.35;;;;;;;3.10;87.33;100542.78;4957327;28;20425;-48
2021/01/26 05:29:19;;;;;;;4.90;1.08;;;;;;;3.10;87.45;100540.84;4963707;28;20125;-51
2021/01/26 05:31:57;;;;;;;4.55;1.17;;;;;;;3.10;87.17;100531.84;4952983;29;20047;-50
2021/01/26 05:34:24;;;;;;;5.13;1.10;;;;;;;3.10;87.13;100532.66;4953861;29;20047;-47
2021/01/26 05:36:51;;;;;;;2.78;1.42;;;;;;;3.11;87.26;100538.94;4951954;29;20577;-53
2021/01/26 05:39:27;;;;;;;2.38;1.10;;;;;;;3.12;87.35;100546.03;4969535;28;20057;-47
2021/01/26 05:41:54;;;;;;;5.45;1.42;;;;;;;3.14;87.77;100543.81;4972323;28;20039;-52
2021/01/26 05:44:21;;;;;;;6.13;1.52;;;;;;;3.14;87.93;100532.88;4957526;28;20079;-49
2021/01/26 05:46:48;;;;;;;4.53;1.30;;;;;;;3.14;87.42;100527.41;4953179;29;20502;-50
2021/01/26 05:49:36;;;;;;;5.93;1.77;;;;;;;3.14;87.40;100510.97;4959743;28;20047;-50
2021/01/26 05:52:06;;;;;;;3.88;1.50;;;;;;;3.13;87.96;100515.63;4977230;28;20539;-49
2021/01/26 05:54:37;;;;;;;2.33;1.30;;;;;;;3.15;87.96;100518.09;4973722;28;20130;-53
2021/01/26 05:57:04;;;;;;;9.50;1.85;;;;;;;3.14;88.22;100506.31;4990486;28;20046;-47
2021/01/26 05:59:36;;;;;;;7.47;1.85;;;;;;;3.16;87.67;100495.06;4990902;28;20488;-46
2021/01/26 06:02:19;;;;;;;3.08;2.55;;;;;;;3.16;88.45;100486.88;4991589;28;20046;-47
2021/01/26 06:04:46;;;;;;;3.95;2.15;;;;;;;3.18;88.00;100487.41;4991366;28;20689;-48
2021/01/26 06:07:26;;;;;;;11.00;2.58;;;;;;;3.17;87.99;100483.03;4990737;28;20140;-48
2021/01/26 06:09:53;;;;;;;4.75;2.13;;;;;;;3.17;88.15;100488.50;4990605;28;20480;-49
2021/01/26 06:12:24;;;;;;;6.25;1.65;;;;;;;3.17;88.02;100488.50;4990714;28;20052;-49
2021/01/26 06:14:57;;;;;;;7.85;2.30;;;;;;;3.16;88.08;100482.22;4990270;28;20081;-48
2021/01/26 06:17:29;;;;;;;5.18;1.52;;;;;;;3.17;88.20;100474.81;4990666;28;20061;-52
2021/01/26 06:20:08;;;;;;;9.23;2.13;;;;;;;3.17;88.11;100474.81;4990469;28;20046;-50
2021/01/26 06:22:35;;;;;;;4.00;2.00;;;;;;;3.18;88.49;100466.31;4990835;28;20051;-49
2021/01/26 06:25:24;;;;;;;5.32;1.60;;;;;;;3.17;88.29;100466.63;4972731;28;20106;-51
2021/01/26 06:28:29;;;;;;;3.47;1.85;;;;;;;3.17;88.64;100472.09;4990185;28;20116;-47
2021/01/26 06:31:28;;;;;;;2.80;1.60;;;;;;;3.17;88.89;100466.63;4969721;28;20112;-52
2021/01/26 06:33:57;;;;;;;4.57;1.70;;;;;;;3.20;88.35;100460.53;4990219;28;20043;-49
2021/01/26 06:36:33;;;;;;;3.88;2.22;;;;;;;3.21;88.14;100457.50;4973591;28;20046;-49
2021/01/26 06:39:35;;;;;;;5.55;2.00;;;;;;;3.20;88.38;100433.19;4981312;28;20050;-48
2021/01/26 06:42:13;;;;;;;7.60;2.40;;;;;;;3.22;88.22;100418.09;4950258;28;20057;-53
2021/01/26 06:45:15;;;;;;;5.82;2.70;;;;;;;3.23;88.23;100419.69;5004363;28;20073;-47
2021/01/26 06:47:53;;;;;;;5.35;3.30;;;;;;;3.24;88.54;100425.97;4973904;28;20077;-49
2021/01/26 06:50:58;;;;;;;4.95;1.95;;;;;;;3.25;88.63;100414.75;4988657;28;20104;-51
2021/01/26 06:53:39;;;;;;;5.00;2.35;;;;;;;3.26;88.25;100419.09;4970972;28;20054;-51
2021/01/26 06:56:30;;;;;;;1.67;1.35;;;;;;;3.25;88.33;100425.69;4970655;28;20302;-52
2021/01/26 06:59:23;;;;;;;5.40;2.00;;;;;;;3.25;88.82;100417.50;4971359;28;20046;-48
2021/01/26 07:02:06;;;;;;;3.40;1.20;;;;;;;3.28;88.51;100396.91;4970882;28;20136;-49
2021/01/26 07:05:16;;;;;;;2.38;0.70;;;;;;;3.28;88.89;100405.13;4988238;28;20047;-48
2021/01/26 07:08:00;;;;;;;0.90;0.50;;;;;;;3.30;88.50;100400.16;4990156;28;20100;-48
2021/01/26 07:10:38;;;;;;;1.55;0.95;;;;;;;3.30;88.62;100400.16;4989771;28;20881;-49
2021/01/26 07:13:15;;;;;;;2.05;0.75;;;;;;;3.33;88.81;100405.03;4989214;28;20069;-50
2021/01/26 07:15:51;;;;;;;1.63;0.73;;;;;;;3.34;88.54;100403.88;4972444;28;20050;-48
2021/01/26 07:18:27;;;;;;;2.80;1.10;;;;;;;3.34;88.69;100410.16;4989460;28;20133;-47
2021/01/26 07:21:11;;;;;;;1.83;0.88;;;;;;;3.35;88.89;100398.13;4989276;28;20077;-51
2021/01/26 07:23:56;;;;;;;2.55;0.70;;;;;;;3.37;89.38;100384.13;4990103;28;20089;-53
2021/01/26 07:26:35;;;;;;;4.88;0.73;;;;;;;3.39;89.36;100377.22;4988943;28;20050;-49
2021/01/26 07:29:39;;;;;;;2.03;0.70;;;;;;;3.41;89.64;100357.78;4990291;28;20132;-47
2021/01/26 07:32:13;;;;;;;2.97;1.15;;;;;;;3.43;89.13;100336.38;4984059;28;20109;-49
2021/01/26 07:34:58;;;;;;;2.00;0.80;;;;;;;3.45;89.31;100336.88;4988621;28;20185;-53
2021/01/26 07:37:32;;;;;;;2.50;1.00;;;;;;;3.46;89.10;100352.19;4988952;28;20512;-49
2021/01/26 07:40:23;;;;;;;6.45;1.50;;;;;;;3.48;89.09;100344.50;4989819;28;20070;-49
2021/01/26 07:42:55;;;;;;;4.50;1.25;;;;;;;3.49;89.03;100324.22;4988452;28;20134;-49
2021/01/26 07:45:36;;;;;;;4.00;1.70;;;;;;;3.48;88.98;100308.91;4990600;28;20074;-50
2021/01/26 07:48:12;;;;;;;6.72;1.70;;;;;;;3.52;89.48;100299.75;4987864;28;20495;-50
2021/01/26 07:50:43;;;;;;;5.03;1.85;;;;;;;3.54;89.75;100291.25;4989554;28;20088;-49
2021/01/26 07:53:15;;;;;;;2.05;1.10;;;;;;;3.55;89.40;100284.66;4978248;28;20054;-48
2021/01/26 07:55:52;;;;;;;2.88;1.50;;;;;;;3.57;89.57;100274.22;4992385;28;20129;-54
2021/01/26 07:58:19;;;;;;;5.35;1.65;;;;;;;3.58;89.88;100249.28;4993225;28;20050;-48
2021/01/26 08:00:50;;;;;;;3.35;1.25;;;;;;;3.62;89.89;100246.72;4994016;28;20129;-48
2021/01/26 08:03:24;;;;;;;5.82;2.42;;;;;;;3.63;89.93;100205.34;4991765;28;20054;-49
2021/01/26 08:06:00;;;;;;;3.22;1.25;;;;;;;3.66;90.59;100187.50;4993286;28;20054;-47
2021/01/26 08:08:39;;;;;;;2.25;1.20;;;;;;;3.69;90.46;100200.56;4981217;28;20053;-52
2021/01/26 08:11:21;;;;;;;3.90;1.23;;;;;;;3.71;90.08;100224.91;4969202;28;20128;-49
2021/01/26 08:13:53;;;;;;;4.43;1.40;;;;;;;3.73;90.12;100218.00;4992037;28;20400;-51
2021/01/26 08:16:29;;;;;;;2.30;0.82;;;;;;;3.77;90.40;100224.44;4991697;28;20038;-51
2021/01/26 08:18:58;;;;;;;2.25;0.85;;;;;;;3.81;89.85;100243.81;4992288;28;20121;-49
2021/01/26 08:21:39;;;;;;;1.13;0.63;;;;;;;3.82;90.09;100256.34;4991687;28;20053;-51
2021/01/26 08:24:18;;;;;;;2.78;0.95;;;;;;;3.84;90.02;100268.59;4991676;28;20058;-51
2021/01/26 08:26:45;;;;;;;2.25;0.80;;;;;;;3.89;89.52;100279.44;4992326;28;20125;-47
2021/01/26 08:29:31;;;;;;;1.17;0.57;;;;;;;3.90;89.82;100282.97;4976512;28;20464;-47
2021/01/26 08:32:26;;;;;;;1.65;0.50;;;;;;;3.91;89.96;100285.44;4972433;28;20817;-49
2021/01/26 08:35:08;;;;;;;4.72;1.27;;;;;;;3.95;90.53;100291.88;4986930;28;20046;-54
2021/01/26 08:37:41;;;;;;;2.20;0.40;;;;;;;4.00;90.34;100299.97;4988662;28;20046;-48
2021/01/26 08:40:12;;;;;;;1.80;0.43;;;;;;;4.04;90.05;100322.06;4990532;28;20089;-50
2021/01/26 08:42:42;;;;;;;0.57;0.30;;;;;;;4.07;90.08;100330.47;4984957;28;20050;-51
2021/01/26 08:45:26;;;;;;;5.00;0.50;;;;;;;4.10;90.01;100332.56;4978728;28;20129;-52
2021/01/26 08:48:07;;;;;;;1.15;0.45;;;;;;;4.13;89.99;100336.66;4983884;28;20069;-48
2021/01/26 08:50:40;;;;;;;0.80;0.40;;;;;;;4.14;89.82;100311.66;4969963;28;20061;-52
2021/01/26 08:53:35;;;;;;;2.33;0.30;;;;;;;4.17;90.01;100305.56;4991403;28;20137;-49
2021/01/26 08:56:03;;;;;;;0.60;0.40;;;;;;;4.20;90.17;100299.47;4982516;28;20058;-50
2021/01/26 08:58:48;;;;;;;3.45;2.00;;;;;;;4.22;90.27;100297.22;4991394;28;20492;-52
2021/01/26 09:01:23;;;;;;;1.38;1.15;;;;;;;4.26;90.01;100300.16;4972928;28;20042;-48
2021/01/26 09:03:55;;;;;;;1.45;0.73;;;;;;;4.26;90.41;100311.88;4980242;28;20046;-53
2021/01/26 09:06:39;;;;;;;3.22;0.55;;;;;;;4.27;90.24;100319.00;4974195;28;20058;-52
2021/01/26 09:09:24;;;;;;;2.60;0.55;;;;;;;4.30;90.62;100304.66;4989991;28;20039;-52
2021/01/26 09:11:52;;;;;;;2.30;0.47;;;;;;;4.34;90.08;100302.13;4985403;28;20043;-50
2021/01/26 09:14:45;;;;;;;1.67;0.52;;;;;;;4.36;90.28;100288.09;4991042;28;20038;-49
2021/01/26 09:17:14;;;;;;;;;;;;;;;4.36;91.00;100290.84;4975542;28;20943;-53
2021/01/26 09:19:46;;;;;;;0.82;0.57;;;;;;;4.38;90.67;100277.63;4988462;28;20009;-51
2021/01/26 09:22:13;;;;;;;;;;;;;;;4.39;91.10;100279.25;4991433;28;20515;-49
2021/01/26 09:24:41;;;;;;;1.75;0.40;;;;;;;4.41;90.44;100291.50;4973014;28;20025;-49
2021/01/26 09:27:22;;;;;;;0.98;0.65;;;;;;;4.41;90.16;100294.25;4992343;28;20129;-52
2021/01/26 09:30:10;;;;;;;3.58;0.60;;;;;;;4.44;90.37;100284.59;4990371;28;20043;-54
2021/01/26 09:32:38;;;;;;;8.52;3.08;;;;;;;4.45;90.05;100272.50;4977364;28;20053;-51
2021/01/26 09:35:22;;;;;;;5.82;3.03;;;;;;;4.47;90.60;100262.03;4989971;28;20448;-53
2021/01/26 09:38:05;;;;;;;11.90;3.78;;;;;;;4.49;90.42;100265.25;4989205;28;20108;-52
2021/01/26 09:40:35;;;;;;;16.45;3.95;;;;;;;4.53;90.31;100258.00;4972068;28;20374;-52
2021/01/26 09:43:21;;;;;;;10.75;4.15;;;;;;;4.55;90.63;100253.03;4990796;28;20046;-50
2021/01/26 09:45:56;;;;;;;14.60;5.70;;;;;;;4.57;90.70;100231.59;4988871;28;20448;-55
2021/01/26 09:48:48;;;;;;;14.70;5.88;;;;;;;4.61;91.03;100210.63;4986887;28;20100;-50
2021/01/26 09:51:30;;;;;;;17.25;6.13;;;;;;;4.63;90.53;100186.47;4973690;28;20575;-51
2021/01/26 09:54:01;;;;;;;7.90;4.30;;;;;;;4.64;90.80;100188.88;4949616;28;20047;-49
2021/01/26 09:56:33;;;;;;;13.38;6.38;;;;;;;4.68;90.82;100210.97;4970452;28;20058;-49
2021/01/26 09:59:00;;;;;;;8.88;3.65;;;;;;;4.72;90.77;100225.66;4971897;28;20082;-52
2021/01/26 10:01:30;;;;;;;13.70;5.90;;;;;;;4.74;90.73;100237.91;4968970;28;20138;-46
2021/01/26 10:03:59;;;;;;;6.30;2.40;;;;;;;4.81;90.79;100234.72;4970697;28;20046;-50
2021/01/26 10:06:27;;;;;;;5.00;2.85;;;;;;;4.83;90.70;100218.75;4970566;28;20560;-48
2021/01/26 10:08:54;;;;;;;4.85;2.50;;;;;;;4.88;90.74;100204.88;4968352;28;20045;-48
2021/01/26 10:11:28;;;;;;;2.30;2.03;;;;;;;4.91;90.75;100198.75;4954642;28;20487;-48
2021/01/26 10:14:16;;;;;;;3.10;2.08;;;;;;;4.95;90.96;100182.47;4968256;28;20043;-49
2021/01/26 10:16:46;;;;;;;2.90;1.65;;;;;;;4.99;90.66;100173.28;4967138;28;20532;-47
2021/01/26 10:19:21;;;;;;;2.15;0.93;;;;;;;5.04;91.35;100166.81;4969969;28;20102;-48
2021/01/26 10:21:48;;;;;;;1.95;1.02;;;;;;;5.10;90.74;100157.31;4968749;28;20054;-51
2021/01/26 10:24:27;;;;;;;2.55;0.98;;;;;;;5.16;90.81;100158.75;4966535;28;20126;-49
2021/01/26 10:27:21;;;;;;;2.47;0.70;;;;;;;5.20;90.84;100149.56;4970437;28;20057;-47
2021/01/26 10:29:48;;;;;;;0.75;0.45;;;;;;;5.24;90.68;100158.72;4968843;28;20074;-47
2021/01/26 10:32:43;;;;;;;2.40;1.10;;;;;;;5.28;91.02;100165.19;4969559;28;20085;-50
2021/01/26 10:35:32;;;;;;;2.80;0.60;;;;;;;5.33;91.18;100162.28;4970765;28;20045;-50
2021/01/26 10:38:30;;;;;;;0.88;0.63;;;;;;;5.38;90.96;100153.88;4965669;28;20043;-51
2021/01/26 10:41:26;;;;;;;2.13;0.80;;;;;;;5.45;90.94;100153.41;4965737;28;20490;-46
2021/01/26 10:44:01;;;;;;;0.80;0.25;;;;;;;5.51;90.89;100163.88;4966843;28;20449;-51
2021/01/26 10:46:43;;;;;;;0.65;0.35;;;;;;;5.57;90.49;100159.03;4967232;28;20061;-50
2021/01/26 10:49:15;;;;;;;1.67;0.40;;;;;;;5.62;90.57;100147.06;4968672;28;20504;-51
2021/01/26 10:51:44;;;;;;;0.45;0.32;;;;;;;5.66;90.41;100148.84;4968252;28;20070;-49
2021/01/26 10:54:12;;;;;;;0.77;0.43;;;;;;;5.70;90.46;100151.72;4967462;28;20070;-49
2021/01/26 10:56:38;;;;;;;1.83;0.98;;;;;;;5.75;90.39;100149.59;4968795;28;20050;-48
2021/01/26 10:59:04;;;;;;;3.22;0.80;;;;;;;5.83;90.41;100154.28;4969827;28;20047;-51
2021/01/26 11:01:31;;;;;;;0.30;0.30;;;;;;;5.92;90.41;100135.06;4965652;28;20055;-48
2021/01/26 11:03:59;;;;;;;2.38;0.68;;;;;;;6.00;90.40;100136.97;4968304;28;20575;-48
2021/01/26 11:06:26;;;;;;;1.25;0.50;;;;;;;6.11;90.39;100130.78;4968291;28;20046;-47
2021/01/26 11:08:53;;;;;;;1.73;1.55;;;;;;;6.20;90.07;100121.66;4967418;28;20054;-48
2021/01/26 11:11:23;;;;;;;0.70;0.20;;;;;;;6.28;90.14;100121.63;4971803;28;20051;-49
2021/01/26 11:13:51;;;;;;;1.17;0.63;;;;;;;6.37;89.96;100103.16;4970128;28;20445;-50
2021/01/26 11:16:17;;;;;;;2.88;1.60;;;;;;;6.44;89.97;100092.41;4966173;28;20054;-49
2021/01/26 11:18:44;;;;;;;4.00;1.70;;;;;;;6.49;89.82;100078.47;4966739;28;20458;-48
2021/01/26 11:21:11;;;;;;;3.78;2.42;;;;;;;6.59;89.60;100083.56;4970263;28;20047;-48
2021/01/26 11:23:38;;;;;;;12.00;6.18;;;;;;;6.70;89.58;100086.72;4947493;28;20053;-48
2021/01/26 11:26:06;;;;;;;12.50;4.70;;;;;;;6.79;89.92;100097.66;4968416;28;20104;-51
2021/01/26 11:28:33;;;;;;;5.80;2.97;;;;;;;6.84;89.81;100089.22;4969135;28;20043;-50
2021/01/26 11:31:00;;;;;;;4.25;2.55;;;;;;;6.88;89.81;100095.66;4967826;28;20054;-50
2021/01/26 11:33:27;;;;;;;3.80;1.50;;;;;;;6.91;89.71;100095.00;4951865;28;20058;-47
2021/01/26 11:35:54;;;;;;;2.85;1.00;;;;;;;6.91;89.75;100084.78;4974414;28;20050;-49
2021/01/26 11:38:21;;;;;;;1.35;0.98;;;;;;;6.93;89.36;100074.25;4978174;28;20039;-48
2021/01/26 11:40:48;;;;;;;6.70;2.60;;;;;;;7.02;89.52;100069.47;4968643;28;20042;-48
2021/01/26 11:43:17;;;;;;;6.45;3.10;;;;;;;7.11;89.21;100061.13;4949915;28;20098;-50
2021/01/26 11:45:45;;;;;;;4.93;3.05;;;;;;;7.21;89.27;100061.50;4946220;29;20075;-49
2021/01/26 11:48:12;;;;;;;2.35;1.30;;;;;;;7.26;88.99;100058.53;4950814;28;20038;-52
2021/01/26 11:50:39;;;;;;;3.78;2.22;;;;;;;7.31;89.09;100060.25;4968451;28;20038;-52
2021/01/26 11:53:08;;;;;;;4.07;2.13;;;;;;;7.35;88.79;100053.75;4981700;28;20046;-49
2021/01/26 11:55:34;;;;;;;1.48;0.90;;;;;;;7.41;88.85;100062.63;4986829;28;20042;-51
2021/01/26 11:58:01;;;;;;;1.88;1.10;;;;;;;7.47;88.74;100052.97;4986024;28;20081;-48
2021/01/26 12:00:30;;;;;;;2.00;1.23;;;;;;;7.54;88.81;100047.72;4987527;28;20042;-49
2021/01/26 12:02:57;;;;;;;0.88;0.77;;;;;;;7.58;88.98;100054.13;4987602;28;20071;-54
2021/01/26 12:05:27;;;;;;;0.80;0.70;;;;;;;7.58;88.66;100048.63;4987230;28;20050;-50
2021/01/26 12:07:54;;;;;;;1.55;1.15;;;;;;;7.60;88.76;100051.06;4981317;28;20093;-50
2021/01/26 12:10:20;;;;;;;2.47;1.13;;;;;;;7.60;88.87;100056.56;4970158;28;20057;-49